Time;durP1;ratioP1;P1;durP2;ratioP2;P2;SDS_P1;SDS_P2;PMS_P1;PMS_P2;Temp;Humidity;BMP_temperature;BMP_pressure;BME280_temperature;BME280_humidity;BME280_pressure;Samples;Min_cycle;Max_cycle;Signal;HPM_P1;HPM_P2
2023/04/16 00:00:23;;;;;;;4.82;1.45;;;;;;;12.97;52.69;98865.13;4969464;28;20029;-93
2023/04/16 00:02:48;;;;;;;3.55;1.95;;;;;;;12.87;55.12;98856.09;4970153;28;20041;-93
2023/04/16 00:05:14;;;;;;;3.90;1.52;;;;;;;13.01;54.50;98874.22;4969805;28;20038;-94
2023/04/16 00:07:40;;;;;;;2.17;1.38;;;;;;;12.99;52.96;98854.81;4971188;28;20038;-94
2023/04/16 00:10:06;;;;;;;4.25;1.15;;;;;;;13.01;50.59;98858.00;4969419;28;20572;-94
2023/04/16 00:12:31;;;;;;;3.95;1.40;;;;;;;13.05;51.57;98859.03;4970588;28;20102;-93
2023/04/16 00:14:57;;;;;;;5.68;1.67;;;;;;;13.11;51.54;98863.25;4970512;28;20034;-94
2023/04/16 00:17:22;;;;;;;3.10;1.20;;;;;;;13.15;51.41;98875.06;4970340;28;20033;-93
2023/04/16 00:19:48;;;;;;;7.30;1.38;;;;;;;13.12;50.24;98862.97;4968762;28;20030;-94
2023/04/16 00:22:13;;;;;;;3.25;1.40;;;;;;;13.17;51.70;98853.16;4970852;28;20041;-94
2023/04/16 00:24:39;;;;;;;3.13;1.20;;;;;;;13.11;49.63;98855.13;4970822;28;20038;-94
2023/04/16 00:27:05;;;;;;;4.18;1.17;;;;;;;13.13;50.14;98844.81;4970883;28;20058;-94
2023/04/16 00:29:31;;;;;;;6.15;1.23;;;;;;;13.14;49.64;98855.34;4970579;28;20037;-94
2023/04/16 00:31:56;;;;;;;4.75;1.05;;;;;;;13.25;48.80;98857.88;4972053;28;20699;-94
2023/04/16 00:34:22;;;;;;;3.83;1.10;;;;;;;13.22;47.66;98848.47;4971201;28;20033;-94
2023/04/16 00:36:47;;;;;;;3.15;1.38;;;;;;;13.33;48.32;98859.91;4970649;28;20038;-95
2023/04/16 00:39:12;;;;;;;3.70;1.23;;;;;;;13.34;47.19;98850.69;4971509;28;20038;-94
2023/04/16 00:41:38;;;;;;;5.28;1.50;;;;;;;13.29;47.28;98848.88;4971984;28;20473;-95
2023/04/16 00:44:03;;;;;;;4.07;1.17;;;;;;;13.37;47.22;98842.00;4969578;28;20040;-94
2023/04/16 00:46:29;;;;;;;2.10;1.00;;;;;;;13.39;47.34;98847.09;4969630;28;20081;-94
2023/04/16 00:48:54;;;;;;;2.20;1.15;;;;;;;13.43;46.63;98837.28;4986651;28;20042;-95
2023/04/16 00:51:20;;;;;;;3.25;1.27;;;;;;;13.44;46.42;98844.28;4970363;28;20024;-95
2023/04/16 00:53:46;;;;;;;4.15;1.45;;;;;;;13.39;46.45;98837.09;4970140;28;20040;-95
2023/04/16 00:56:11;;;;;;;3.80;1.08;;;;;;;13.45;46.74;98851.31;4969343;28;20037;-95
2023/04/16 00:58:37;;;;;;;4.75;1.35;;;;;;;13.41;48.40;98837.59;4970384;28;20488;-93
2023/04/16 01:01:03;;;;;;;4.90;1.42;;;;;;;13.48;46.65;98854.19;4971541;28;20073;-94
2023/04/16 01:03:37;;;;;;;1.75;0.80;;;;;;;13.38;46.63;98835.47;4970563;28;20049;-94
2023/04/16 01:06:03;;;;;;;5.07;1.35;;;;;;;13.28;46.15;98822.09;4987072;28;20040;-96
2023/04/16 01:08:30;;;;;;;2.47;1.13;;;;;;;13.39;45.10;98826.28;4970605;28;20034;-95
2023/04/16 01:10:55;;;;;;;2.10;1.42;;;;;;;13.28;45.42;98816.69;4970420;28;20013;-95
2023/04/16 01:13:21;;;;;;;3.28;1.10;;;;;;;13.40;45.76;98841.38;4970592;28;20040;-95
2023/04/16 01:15:46;;;;;;;2.83;1.10;;;;;;;13.27;46.80;98820.53;4967912;28;20060;-95
2023/04/16 01:18:15;;;;;;;2.85;1.10;;;;;;;13.30;46.31;98822.63;4969390;28;20412;-93
2023/04/16 01:20:41;;;;;;;1.67;1.00;;;;;;;13.27;45.28;98823.22;4970826;28;20037;-94
2023/04/16 01:23:06;;;;;;;2.67;1.15;;;;;;;13.29;44.73;98824.56;4970271;28;20041;-94
2023/04/16 01:25:32;;;;;;;2.67;0.98;;;;;;;13.25;45.32;98820.81;4970356;28;20045;-94
2023/04/16 01:27:58;;;;;;;1.90;1.00;;;;;;;13.42;44.54;98849.19;4969533;28;20057;-94
2023/04/16 01:30:24;;;;;;;2.13;0.93;;;;;;;13.23;45.54;98828.41;4970492;28;20045;-94
2023/04/16 01:32:49;;;;;;;2.75;1.00;;;;;;;13.27;44.90;98831.34;4969666;28;20034;-95
2023/04/16 01:35:16;;;;;;;2.47;0.80;;;;;;;13.15;45.58;98807.50;4968830;28;20398;-95
2023/04/16 01:37:42;;;;;;;5.28;1.60;;;;;;;13.08;46.54;98802.47;4969790;28;20038;-95
2023/04/16 01:40:08;;;;;;;5.75;1.20;;;;;;;13.21;47.50;98833.31;4970106;28;20042;-95
2023/04/16 01:42:34;;;;;;;2.42;1.20;;;;;;;13.18;45.57;98827.72;4969762;28;20018;-94
2023/04/16 01:44:59;;;;;;;2.13;0.90;;;;;;;13.12;45.86;98822.41;4969006;28;20623;-95
2023/04/16 01:47:25;;;;;;;3.38;1.13;;;;;;;13.21;45.95;98835.22;4969537;28;20030;-95
2023/04/16 01:49:50;;;;;;;7.78;2.08;;;;;;;13.18;49.51;98836.63;4969818;28;20038;-94
2023/04/16 01:52:16;;;;;;;7.18;2.15;;;;;;;12.89;55.60;98837.69;4969675;28;20042;-95
2023/04/16 01:54:41;;;;;;;5.30;2.83;;;;;;;12.71;55.99;98833.94;4967969;28;20064;-95
2023/04/16 01:57:07;;;;;;;6.43;2.60;;;;;;;12.62;56.68;98824.91;4971829;28;20038;-95
2023/04/16 01:59:33;;;;;;;4.63;1.88;;;;;;;12.67;55.24;98841.00;4973942;28;20022;-95
2023/04/16 02:02:09;;;;;;;3.70;2.00;;;;;;;12.45;57.38;98824.63;4973880;28;20037;-95
2023/04/16 02:04:37;;;;;;;6.60;2.55;;;;;;;12.23;57.08;98809.84;4974408;28;20037;-95
2023/04/16 02:07:03;;;;;;;5.80;2.30;;;;;;;12.27;57.54;98832.47;4973076;28;20530;-95
2023/04/16 02:09:28;;;;;;;4.28;2.15;;;;;;;12.24;57.55;98843.88;4973611;28;20080;-95
2023/04/16 02:11:54;;;;;;;5.10;2.00;;;;;;;12.12;57.74;98838.09;4973767;28;20042;-95
2023/04/16 02:14:21;;;;;;;5.38;2.25;;;;;;;12.08;58.20;98837.06;4973389;28;20037;-94
2023/04/16 02:16:47;;;;;;;6.57;2.13;;;;;;;12.12;58.44;98835.41;4971211;28;20069;-94
2023/04/16 02:19:12;;;;;;;4.63;2.03;;;;;;;11.96;60.06;98832.09;4972248;28;20037;-95
2023/04/16 02:21:37;;;;;;;3.60;2.10;;;;;;;11.92;61.15;98839.97;4973879;28;20049;-95
2023/04/16 02:24:03;;;;;;;5.43;2.72;;;;;;;11.87;60.86;98840.00;4972766;28;20034;-93
2023/04/16 02:26:29;;;;;;;6.63;2.33;;;;;;;11.63;62.10;98820.38;4971941;28;20065;-94
2023/04/16 02:28:54;;;;;;;5.00;2.28;;;;;;;11.75;60.89;98828.84;4973327;28;20041;-93
2023/04/16 02:31:21;;;;;;;3.22;1.70;;;;;;;11.81;60.33;98832.28;4973614;28;20040;-93
2023/04/16 02:33:46;;;;;;;6.15;1.73;;;;;;;11.54;61.47;98825.59;4973634;28;20041;-93
2023/04/16 02:36:12;;;;;;;4.90;1.55;;;;;;;11.55;60.00;98813.72;4971991;28;20492;-93
2023/04/16 02:38:37;;;;;;;3.92;1.60;;;;;;;11.72;58.11;98842.88;4972162;28;20104;-94
2023/04/16 02:41:03;;;;;;;3.67;1.30;;;;;;;11.67;59.69;98835.66;4971388;28;20029;-94
2023/04/16 02:43:28;;;;;;;5.15;1.58;;;;;;;11.76;57.62;98835.03;4972935;28;20038;-94
2023/04/16 02:45:54;;;;;;;4.72;1.92;;;;;;;11.79;57.93;98840.66;4971872;28;20065;-94
2023/04/16 02:48:19;;;;;;;4.63;1.73;;;;;;;11.81;57.45;98829.59;4972298;28;20042;-94
2023/04/16 02:50:44;;;;;;;5.07;2.05;;;;;;;11.82;57.98;98831.19;4971339;28;20066;-93
2023/04/16 02:53:10;;;;;;;2.70;1.25;;;;;;;11.81;56.92;98822.28;4971813;28;20037;-94
2023/04/16 02:55:35;;;;;;;3.10;1.20;;;;;;;11.91;54.67;98835.69;4972011;28;20040;-94
2023/04/16 02:58:01;;;;;;;4.13;1.50;;;;;;;12.02;54.40;98840.94;4972670;28;20041;-95
2023/04/16 03:00:26;;;;;;;4.35;1.60;;;;;;;12.03;53.77;98834.44;4972313;28;20034;-94
2023/04/16 03:02:52;;;;;;;4.07;1.65;;;;;;;12.05;54.50;98843.84;4971444;28;20017;-94
2023/04/16 03:05:17;;;;;;;4.57;1.25;;;;;;;12.16;54.45;98852.63;4971734;28;20072;-94
2023/04/16 03:07:43;;;;;;;2.13;1.30;;;;;;;12.13;53.79;98839.69;4970974;28;20034;-95
2023/04/16 03:10:09;;;;;;;3.47;1.50;;;;;;;12.17;54.18;98839.91;4972004;28;20069;-94
2023/04/16 03:12:35;;;;;;;7.30;1.73;;;;;;;12.16;54.16;98841.00;4971679;28;20034;-95
2023/04/16 03:15:01;;;;;;;2.70;1.38;;;;;;;12.17;53.93;98835.31;4971804;28;20038;-94
2023/04/16 03:17:26;;;;;;;3.75;1.60;;;;;;;12.04;54.19;98814.47;4972616;28;20034;-94
2023/04/16 03:19:52;;;;;;;4.35;1.35;;;;;;;12.18;54.30;98841.50;4972199;28;20029;-94
2023/04/16 03:22:17;;;;;;;3.47;1.50;;;;;;;12.33;54.08;98861.00;4971482;28;20053;-93
2023/04/16 03:24:43;;;;;;;5.15;1.40;;;;;;;12.35;53.96;98858.00;4972683;28;20042;-95
2023/04/16 03:27:08;;;;;;;6.28;1.65;;;;;;;12.34;54.17;98850.97;4971659;28;20050;-93
2023/04/16 03:29:40;;;;;;;4.45;1.40;;;;;;;12.45;54.07;98857.03;4972312;28;20057;-93
2023/04/16 03:32:05;;;;;;;4.38;1.30;;;;;;;12.43;53.91;98851.13;4971762;28;20030;-94
2023/04/16 03:34:31;;;;;;;8.27;1.75;;;;;;;12.50;53.83;98855.06;4971563;28;20037;-93
2023/04/16 03:36:56;;;;;;;5.53;1.80;;;;;;;12.57;53.59;98853.88;4972236;28;20029;-93
2023/04/16 03:39:22;;;;;;;4.45;1.42;;;;;;;12.68;54.06;98866.94;4970065;28;20120;-95
2023/04/16 03:41:47;;;;;;;4.53;1.63;;;;;;;12.66;54.09;98855.63;4970986;28;20045;-93
2023/04/16 03:44:13;;;;;;;6.85;1.50;;;;;;;12.53;54.16;98826.66;4970616;28;20507;-94
2023/04/16 03:46:38;;;;;;;7.07;1.75;;;;;;;12.53;54.39;98832.88;4970558;28;20038;-94
2023/04/16 03:49:04;;;;;;;7.35;1.40;;;;;;;12.54;54.29;98834.47;4971296;28;20100;-93
2023/04/16 03:51:29;;;;;;;3.70;1.40;;;;;;;12.74;54.36;98867.66;4970490;28;20042;-94
2023/04/16 03:53:55;;;;;;;5.13;1.60;;;;;;;12.78;54.31;98867.88;4971239;28;20033;-94
2023/04/16 03:56:20;;;;;;;5.97;1.90;;;;;;;12.70;54.34;98853.94;4972803;28;20034;-94
2023/04/16 03:58:46;;;;;;;6.47;2.20;;;;;;;12.81;54.83;98868.09;4971297;28;20041;-95
2023/04/16 04:01:11;;;;;;;5.45;1.70;;;;;;;12.68;54.94;98841.84;4970718;28;20073;-94
2023/04/16 04:03:37;;;;;;;7.13;2.10;;;;;;;12.77;54.90;98847.38;4970908;28;20037;-95
2023/04/16 04:06:07;;;;;;;4.13;1.80;;;;;;;12.78;54.87;98854.34;4970999;28;20057;-95
2023/04/16 04:08:32;;;;;;;4.70;1.75;;;;;;;12.73;55.16;98839.84;4970737;28;20034;-94
2023/04/16 04:10:58;;;;;;;7.70;2.35;;;;;;;12.83;55.08;98859.69;4969285;28;20480;-95
2023/04/16 04:13:23;;;;;;;7.78;2.10;;;;;;;12.86;55.44;98862.59;4970976;28;20501;-93
2023/04/16 04:15:49;;;;;;;6.78;2.40;;;;;;;12.86;55.37;98853.69;4970934;28;20034;-95
2023/04/16 04:18:14;;;;;;;8.38;2.72;;;;;;;12.84;55.64;98867.47;4969857;28;20041;-94
2023/04/16 04:20:40;;;;;;;11.18;3.60;;;;;;;12.68;56.05;98866.94;4968544;28;20022;-94
2023/04/16 04:23:05;;;;;;;7.75;3.22;;;;;;;12.73;55.93;98853.34;4970798;28;20503;-93
2023/04/16 04:25:31;;;;;;;9.35;3.38;;;;;;;12.87;56.28;98869.59;4971531;28;20049;-95
2023/04/16 04:27:56;;;;;;;7.68;3.08;;;;;;;12.88;55.91;98856.88;4963787;28;20054;-94
2023/04/16 04:30:22;;;;;;;6.70;2.92;;;;;;;13.05;55.97;98869.84;4947814;28;20406;-94
2023/04/16 04:32:47;;;;;;;4.20;2.50;;;;;;;12.98;55.57;98853.22;4948090;28;20062;-95
2023/04/16 04:35:13;;;;;;;5.18;2.08;;;;;;;13.19;55.61;98880.69;4947769;28;20038;-95
2023/04/16 04:38:02;;;;;;;4.15;2.17;;;;;;;13.33;55.83;98898.56;4947688;28;20074;-93
2023/04/16 04:40:27;;;;;;;6.72;2.55;;;;;;;13.33;55.67;98890.44;4963604;28;20038;-94
2023/04/16 04:42:52;;;;;;;6.18;2.30;;;;;;;13.33;56.09;98886.94;4946037;28;20113;-94
2023/04/16 04:45:18;;;;;;;6.50;3.03;;;;;;;13.37;56.51;98873.66;4948319;28;20513;-94
2023/04/16 04:47:43;;;;;;;5.38;2.20;;;;;;;13.51;56.08;98886.06;4947869;28;20038;-94
2023/04/16 04:50:09;;;;;;;5.85;2.13;;;;;;;13.56;55.86;98878.97;4948716;28;20046;-94
2023/04/16 04:52:35;;;;;;;5.82;2.00;;;;;;;13.63;55.85;98874.72;4947722;28;20042;-94
2023/04/16 04:55:00;;;;;;;5.22;1.85;;;;;;;13.75;56.03;98882.34;4948971;28;20038;-95
2023/04/16 04:57:26;;;;;;;5.95;2.00;;;;;;;13.74;56.17;98876.16;4947614;28;20038;-94
2023/04/16 04:59:51;;;;;;;4.13;2.10;;;;;;;13.89;55.96;98882.34;4948861;28;20043;-94
2023/04/16 05:02:16;;;;;;;6.68;2.10;;;;;;;13.92;55.85;98876.31;4947574;28;20042;-95
2023/04/16 05:04:42;;;;;;;4.38;2.38;;;;;;;14.03;56.25;98875.03;4948389;28;20101;-95
2023/04/16 05:07:07;;;;;;;7.47;2.42;;;;;;;14.13;55.96;98884.81;4947152;28;20043;-94
2023/04/16 05:09:33;;;;;;;7.93;2.40;;;;;;;14.19;55.44;98878.19;4948386;28;20413;-94
2023/04/16 05:11:58;;;;;;;7.03;2.40;;;;;;;14.30;54.89;98876.06;4946676;28;20050;-95
2023/04/16 05:14:24;;;;;;;7.88;2.50;;;;;;;14.46;54.81;98890.06;4947842;28;20034;-94
2023/04/16 05:16:50;;;;;;;7.82;2.40;;;;;;;14.51;55.26;98881.81;4948388;28;20022;-95
2023/04/16 05:19:15;;;;;;;5.05;2.13;;;;;;;14.58;54.46;98887.63;4947542;28;20035;-94
2023/04/16 05:21:41;;;;;;;9.23;2.80;;;;;;;14.63;54.70;98892.13;4948268;28;20043;-94
2023/04/16 05:24:07;;;;;;;14.57;2.55;;;;;;;14.60;54.03;98893.53;4963301;28;20417;-94
2023/04/16 05:26:32;;;;;;;5.80;2.28;;;;;;;14.70;53.57;98900.66;4951396;28;20035;-95
2023/04/16 05:28:58;;;;;;;9.70;2.80;;;;;;;14.54;54.25;98884.69;4970299;28;20038;-94
2023/04/16 05:31:23;;;;;;;6.80;2.42;;;;;;;14.64;54.10;98889.13;4970757;28;20105;-94
2023/04/16 05:33:49;;;;;;;6.00;2.20;;;;;;;14.73;53.91;98892.72;4969870;28;20030;-94
2023/04/16 05:36:14;;;;;;;4.88;2.20;;;;;;;14.77;53.67;98887.44;4970501;28;20485;-94
2023/04/16 05:38:40;;;;;;;3.95;2.25;;;;;;;14.72;54.15;98898.44;4969549;28;20088;-94
2023/04/16 05:41:05;;;;;;;9.98;2.20;;;;;;;14.72;53.91;98880.25;4969957;28;20385;-94
2023/04/16 05:43:31;;;;;;;4.38;2.03;;;;;;;14.73;53.93;98881.88;4968521;28;20554;-95
2023/04/16 05:45:56;;;;;;;5.80;2.60;;;;;;;14.60;54.43;98893.53;4969185;28;20034;-94
2023/04/16 05:48:21;;;;;;;8.93;3.22;;;;;;;14.69;54.40;98889.00;4969936;28;20049;-94
2023/04/16 05:50:48;;;;;;;10.75;2.72;;;;;;;14.68;54.50;98884.69;4971012;28;20419;-94
2023/04/16 05:53:13;;;;;;;5.07;2.60;;;;;;;14.74;54.13;98877.25;4970113;28;20500;-94
2023/04/16 05:55:39;;;;;;;4.65;2.40;;;;;;;14.80;54.50;98886.84;4969373;28;20037;-95
2023/04/16 05:58:04;;;;;;;4.82;2.60;;;;;;;14.88;54.07;98869.03;4968889;28;20034;-94
2023/04/16 06:00:33;;;;;;;6.00;2.55;;;;;;;14.93;54.16;98868.91;4971154;28;20025;-95
2023/04/16 06:03:00;;;;;;;11.73;3.20;;;;;;;14.97;54.10;98875.31;4970465;28;20492;-95
2023/04/16 06:05:25;;;;;;;12.02;3.00;;;;;;;14.92;54.07;98857.28;4970490;28;20018;-94
2023/04/16 06:07:51;;;;;;;7.40;3.00;;;;;;;15.05;54.02;98858.31;4969037;28;20033;-94
2023/04/16 06:10:16;;;;;;;6.65;3.00;;;;;;;15.24;54.47;98889.81;4969286;28;20034;-94
2023/04/16 06:12:42;;;;;;;5.68;2.95;;;;;;;15.23;54.63;98866.50;4970237;28;20038;-94
2023/04/16 06:15:08;;;;;;;8.10;3.53;;;;;;;15.24;55.21;98863.50;4970142;28;20033;-95
2023/04/16 06:17:33;;;;;;;4.05;3.03;;;;;;;15.27;54.79;98856.66;4969647;28;20040;-93
2023/04/16 06:19:59;;;;;;;6.72;3.58;;;;;;;15.56;54.63;98891.41;4969866;28;20030;-94
2023/04/16 06:22:24;;;;;;;5.70;3.05;;;;;;;15.49;54.10;98837.59;4969957;28;20100;-94
2023/04/16 06:24:50;;;;;;;7.72;3.42;;;;;;;15.82;53.76;98850.03;4989490;28;20045;-94
2023/04/16 06:27:16;;;;;;;8.23;3.10;;;;;;;16.19;52.96;98867.66;4985320;28;20041;-95
2023/04/16 06:29:41;;;;;;;5.85;2.95;;;;;;;16.28;52.26;98848.63;4986735;28;20018;-94
2023/04/16 06:32:07;;;;;;;9.10;3.28;;;;;;;16.30;51.84;98863.50;4987189;28;20523;-94
2023/04/16 06:34:32;;;;;;;12.65;3.60;;;;;;;16.51;51.43;98879.16;5002714;28;20057;-94
2023/04/16 06:36:58;;;;;;;5.47;2.65;;;;;;;16.40;50.98;98856.94;4986553;28;20088;-94
2023/04/16 06:39:24;;;;;;;3.72;2.20;;;;;;;16.76;49.09;98891.16;4987532;28;20338;-95
2023/04/16 06:41:50;;;;;;;7.75;2.33;;;;;;;16.69;49.73;98875.31;4986360;28;20021;-95
2023/04/16 06:44:15;;;;;;;6.82;2.38;;;;;;;16.77;48.59;98876.44;4988796;28;20040;-95
2023/04/16 06:46:41;;;;;;;4.97;1.92;;;;;;;16.84;48.29;98887.66;4987886;28;20026;-95
2023/04/16 06:49:06;;;;;;;6.45;2.30;;;;;;;17.01;48.68;98872.44;4992265;28;20038;-95
2023/04/16 06:51:32;;;;;;;5.85;2.38;;;;;;;17.08;49.15;98864.56;4991449;28;20034;-93
2023/04/16 06:53:57;;;;;;;7.57;2.33;;;;;;;17.25;48.55;98871.91;4990713;28;20041;-93
2023/04/16 06:56:23;;;;;;;3.50;2.00;;;;;;;17.33;46.78;98871.06;4990005;28;20104;-93
2023/04/16 06:58:49;;;;;;;7.78;2.78;;;;;;;17.48;45.92;98856.13;4990049;28;20566;-94
2023/04/16 07:01:15;;;;;;;7.78;2.72;;;;;;;17.86;46.12;98880.59;4990063;28;20030;-94
2023/04/16 07:03:41;;;;;;;6.75;2.10;;;;;;;18.18;44.61;98890.03;4989069;28;20040;-93
2023/04/16 07:06:06;;;;;;;5.82;2.83;;;;;;;18.30;44.39;98885.78;4989605;28;20026;-94
2023/04/16 07:08:32;;;;;;;7.75;2.88;;;;;;;18.23;44.33;98880.88;4988843;28;20030;-94
2023/04/16 07:10:59;;;;;;;7.45;3.10;;;;;;;18.13;44.65;98876.59;4989371;28;20054;-94
2023/04/16 07:13:24;;;;;;;7.07;3.20;;;;;;;18.24;45.34;98873.47;4989813;28;20049;-95
2023/04/16 07:15:50;;;;;;;9.40;3.60;;;;;;;18.43;45.20;98890.19;4987847;28;20488;-95
2023/04/16 07:18:18;;;;;;;9.90;4.03;;;;;;;18.58;45.74;98899.69;4989562;28;20088;-94
2023/04/16 07:20:44;;;;;;;6.68;3.78;;;;;;;18.40;45.22;98898.22;4989487;28;20025;-95
2023/04/16 07:23:09;;;;;;;7.78;3.70;;;;;;;18.00;46.01;98882.31;4990632;28;20050;-94
2023/04/16 07:25:35;;;;;;;9.48;3.95;;;;;;;17.71;46.56;98887.38;4989818;28;20416;-94
2023/04/16 07:28:01;;;;;;;8.20;4.65;;;;;;;17.97;46.43;98886.47;4990761;28;20060;-94
2023/04/16 07:30:32;;;;;;;8.88;4.05;;;;;;;17.82;46.93;98865.22;4990878;28;20041;-94
2023/04/16 07:32:59;;;;;;;11.20;4.80;;;;;;;17.75;47.68;98893.78;4990091;28;20056;-94
2023/04/16 07:35:24;;;;;;;8.68;4.60;;;;;;;18.15;46.83;98908.97;4987783;28;20371;-95
2023/04/16 07:37:50;;;;;;;10.02;5.55;;;;;;;17.73;48.57;98903.41;4988786;28;20062;-94
2023/04/16 07:40:15;;;;;;;9.65;5.55;;;;;;;17.89;47.81;98888.13;5004740;28;20103;-96
2023/04/16 07:42:41;;;;;;;16.77;5.65;;;;;;;18.18;46.91;98881.06;4989126;28;20038;-94
2023/04/16 07:45:08;;;;;;;10.15;4.57;;;;;;;18.23;46.68;98864.53;4987872;28;20037;-94
2023/04/16 07:47:33;;;;;;;8.65;4.95;;;;;;;17.98;47.72;98869.00;4988830;28;20034;-94
2023/04/16 07:49:59;;;;;;;9.38;5.07;;;;;;;18.22;47.04;98873.84;4988526;28;20154;-94
2023/04/16 07:52:25;;;;;;;9.48;4.38;;;;;;;18.28;47.16;98860.78;4989800;28;20037;-94
2023/04/16 07:54:51;;;;;;;12.68;6.55;;;;;;;18.58;46.38;98861.53;4988990;28;20393;-95
2023/04/16 07:57:16;;;;;;;10.80;5.35;;;;;;;18.85;46.05;98883.94;4989868;28;20037;-95
2023/04/16 07:59:44;;;;;;;8.20;5.40;;;;;;;18.92;46.21;98879.50;4989249;28;20041;-95
2023/04/16 08:02:13;;;;;;;9.70;4.60;;;;;;;19.15;45.46;98876.41;4972712;28;20034;-95
2023/04/16 08:04:40;;;;;;;7.93;4.30;;;;;;;19.26;45.25;98860.38;4973103;28;20037;-96
2023/04/16 08:07:06;;;;;;;8.68;4.20;;;;;;;19.37;44.54;98881.44;4973093;28;20042;-94
2023/04/16 08:09:31;;;;;;;11.20;4.43;;;;;;;19.36;44.09;98870.84;4972985;28;20128;-94
2023/04/16 08:11:58;;;;;;;6.20;4.00;;;;;;;19.38;44.14;98869.41;4972841;28;20084;-95
2023/04/16 08:14:24;;;;;;;7.20;3.63;;;;;;;19.11;45.42;98854.47;4972083;28;20069;-95
2023/04/16 08:16:50;;;;;;;7.05;3.40;;;;;;;19.25;44.99;98869.72;4971199;28;20034;-94
2023/04/16 08:19:15;;;;;;;9.13;4.03;;;;;;;19.43;45.05;98875.78;4972004;28;20128;-94
2023/04/16 08:21:41;;;;;;;10.40;4.22;;;;;;;19.48;44.75;98878.28;4972431;28;20125;-94
2023/04/16 08:24:06;;;;;;;7.18;3.22;;;;;;;19.40;44.87;98855.38;4971461;28;20042;-95
2023/04/16 08:26:32;;;;;;;9.80;3.95;;;;;;;19.58;44.97;98864.97;4971644;28;20034;-94
2023/04/16 08:28:57;;;;;;;6.85;3.50;;;;;;;19.43;45.00;98849.25;4972567;28;20467;-94
2023/04/16 08:31:23;;;;;;;8.38;4.10;;;;;;;19.39;45.97;98854.59;4971181;28;20037;-94
2023/04/16 08:33:49;;;;;;;7.28;4.05;;;;;;;19.32;45.98;98870.75;4971597;28;20038;-94
2023/04/16 08:36:14;;;;;;;8.80;3.85;;;;;;;19.18;46.08;98876.53;4970406;28;20038;-93
2023/04/16 08:38:40;;;;;;;7.03;3.63;;;;;;;19.13;45.78;98871.28;4970908;28;20034;-94
2023/04/16 08:41:06;;;;;;;11.15;3.90;;;;;;;18.94;46.32;98849.16;4971225;28;20030;-94
2023/04/16 08:43:36;;;;;;;8.73;3.97;;;;;;;18.89;46.58;98846.66;4971160;28;20034;-94
2023/04/16 08:46:03;;;;;;;4.75;3.40;;;;;;;18.58;47.50;98843.22;4970578;28;20081;-92
2023/04/16 08:48:29;;;;;;;9.60;3.83;;;;;;;18.76;46.67;98849.31;4971121;28;20195;-94
2023/04/16 08:50:55;;;;;;;6.38;3.45;;;;;;;18.56;46.80;98839.25;4973468;28;20069;-95
2023/04/16 08:53:21;;;;;;;9.98;3.70;;;;;;;18.79;45.83;98828.78;4972209;28;20021;-94
2023/04/16 08:55:48;;;;;;;7.18;3.58;;;;;;;18.97;45.57;98835.66;4971758;28;20385;-93
2023/04/16 08:58:18;;;;;;;8.82;4.07;;;;;;;19.31;44.90;98862.91;4988777;28;20052;-94
2023/04/16 09:00:46;;;;;;;6.45;3.10;;;;;;;19.25;44.38;98831.50;4971845;28;20037;-95
2023/04/16 09:03:14;;;;;;;6.93;3.50;;;;;;;19.45;43.41;98833.34;4972258;28;20041;-96
2023/04/16 09:05:40;;;;;;;8.32;3.10;;;;;;;19.55;42.96;98835.63;4971318;28;20041;-94
2023/04/16 09:08:11;;;;;;;6.13;2.78;;;;;;;19.47;43.43;98855.63;4971488;28;20042;-94
2023/04/16 09:10:37;;;;;;;7.67;3.40;;;;;;;19.43;44.06;98837.56;4972433;28;20049;-96
2023/04/16 09:13:02;;;;;;;12.75;3.45;;;;;;;19.30;43.33;98834.81;4971225;28;20401;-95
2023/04/16 09:15:28;;;;;;;9.48;3.70;;;;;;;19.52;43.80;98862.81;4971440;28;20041;-95
2023/04/16 09:17:56;;;;;;;7.63;4.03;;;;;;;19.93;43.65;98856.34;4973169;28;20413;-95
2023/04/16 09:20:22;;;;;;;5.45;3.58;;;;;;;20.30;42.22;98839.06;4974769;28;20048;-95
2023/04/16 09:22:47;;;;;;;8.55;3.65;;;;;;;20.49;40.84;98835.69;4974494;28;20042;-93
2023/04/16 09:25:13;;;;;;;7.35;3.90;;;;;;;20.92;40.65;98847.84;4973122;28;20045;-96
2023/04/16 09:27:39;;;;;;;11.07;3.75;;;;;;;20.97;39.83;98836.63;4972787;28;20512;-93
2023/04/16 09:30:24;;;;;;;8.25;3.20;;;;;;;20.88;39.97;98861.44;4970901;28;20025;-94
2023/04/16 09:32:50;;;;;;;9.63;3.67;;;;;;;20.70;40.61;98852.72;4971424;28;20484;-95
2023/04/16 09:35:20;;;;;;;7.10;3.17;;;;;;;20.54;41.15;98849.13;4971937;28;20061;-95
2023/04/16 09:37:56;;;;;;;8.43;3.85;;;;;;;21.07;40.33;98849.81;4971662;28;20136;-95
2023/04/16 09:40:26;;;;;;;9.70;3.35;;;;;;;21.38;39.22;98851.78;4971148;28;20038;-95
2023/04/16 09:42:52;;;;;;;6.57;3.20;;;;;;;21.48;39.10;98855.16;4970852;28;20037;-95
2023/04/16 09:45:17;;;;;;;8.25;3.63;;;;;;;21.53;39.01;98852.16;4972172;28;20041;-95
2023/04/16 09:47:44;;;;;;;5.93;3.30;;;;;;;21.36;38.85;98836.84;4973282;28;20038;-94
2023/04/16 09:50:16;;;;;;;11.80;3.90;;;;;;;21.16;39.20;98846.91;4972480;28;20038;-94
2023/04/16 09:52:47;;;;;;;6.28;2.97;;;;;;;21.03;38.54;98842.66;4973981;28;20030;-94
2023/04/16 09:55:13;;;;;;;6.80;3.77;;;;;;;20.75;39.53;98843.47;4972117;28;20034;-95
2023/04/16 09:57:38;;;;;;;7.85;3.88;;;;;;;20.82;39.31;98837.41;4971434;28;20044;-95
2023/04/16 10:00:05;;;;;;;6.43;3.50;;;;;;;20.89;38.84;98845.81;4970834;28;20125;-94
2023/04/16 10:02:31;;;;;;;8.27;4.18;;;;;;;20.92;39.34;98850.59;4971632;28;20092;-95
2023/04/16 10:04:57;;;;;;;8.50;4.07;;;;;;;21.02;38.60;98832.84;4970682;28;20041;-94
2023/04/16 10:07:27;;;;;;;8.13;3.80;;;;;;;21.01;38.76;98842.22;4972075;28;20508;-95
2023/04/16 10:09:52;;;;;;;6.65;4.07;;;;;;;21.17;37.91;98837.56;4970801;28;20140;-95
2023/04/16 10:12:18;;;;;;;10.07;4.25;;;;;;;21.44;37.57;98838.66;4972032;28;20057;-95
2023/04/16 10:14:43;;;;;;;8.35;3.88;;;;;;;21.51;36.52;98821.56;4970394;28;20045;-95
2023/04/16 10:17:09;;;;;;;7.57;3.53;;;;;;;21.37;36.12;98811.03;4971569;28;20030;-95
2023/04/16 10:19:34;;;;;;;6.40;3.63;;;;;;;21.38;34.62;98818.91;4974971;28;20221;-95
2023/04/16 10:22:01;;;;;;;8.43;3.35;;;;;;;21.35;34.70;98835.25;4975215;28;20489;-94
2023/04/16 10:24:31;;;;;;;7.10;3.63;;;;;;;21.23;34.76;98813.41;4975771;28;20025;-94
2023/04/16 10:26:57;;;;;;;7.63;3.22;;;;;;;21.29;34.70;98825.69;4975547;28;20070;-96
2023/04/16 10:29:28;;;;;;;6.82;3.60;;;;;;;21.46;34.34;98819.91;4975681;28;20068;-95
2023/04/16 10:31:54;;;;;;;6.90;3.33;;;;;;;21.43;35.25;98812.38;4975173;28;20034;-96
2023/04/16 10:34:19;;;;;;;6.63;3.53;;;;;;;21.50;35.37;98829.00;4975127;28;20408;-95
2023/04/16 10:36:50;;;;;;;8.55;5.07;;;;;;;21.20;36.16;98826.66;4973692;28;20038;-95
2023/04/16 10:39:20;;;;;;;5.68;3.47;;;;;;;20.83;37.00;98825.31;4973008;28;20036;-95
2023/04/16 10:41:46;;;;;;;11.13;3.28;;;;;;;21.12;36.07;98813.94;4974127;28;20049;-95
2023/04/16 10:44:11;;;;;;;7.15;3.67;;;;;;;21.26;36.32;98821.72;4973982;28;20042;-95
2023/04/16 10:46:40;;;;;;;6.25;3.50;;;;;;;21.40;34.84;98824.03;4972926;28;20056;-95
2023/04/16 10:49:13;;;;;;;10.38;3.50;;;;;;;21.25;34.41;98798.25;5006937;28;20060;-95
2023/04/16 10:51:39;;;;;;;9.20;3.60;;;;;;;21.20;34.49;98806.72;4978466;28;20030;-95
2023/04/16 10:54:08;;;;;;;7.22;3.05;;;;;;;20.94;35.08;98831.88;4975826;28;20030;-95
2023/04/16 10:56:35;;;;;;;6.47;3.67;;;;;;;20.63;35.64;98789.63;5011339;28;20057;-95
2023/04/16 10:59:10;;;;;;;6.70;3.42;;;;;;;21.01;34.68;98820.31;4979688;28;20034;-94
2023/04/16 11:01:37;;;;;;;5.82;3.63;;;;;;;21.04;34.71;98806.69;4977723;28;20026;-96
2023/04/16 11:04:20;;;;;;;8.15;3.45;;;;;;;21.28;34.76;98824.13;4973962;28;20025;-95
2023/04/16 11:07:15;;;;;;;7.00;3.10;;;;;;;21.39;34.82;98827.91;5005934;28;20095;-95
2023/04/16 11:09:53;;;;;;;8.80;3.67;;;;;;;21.29;35.36;98820.22;5004716;28;20092;-96
2023/04/16 11:12:19;;;;;;;7.57;4.38;;;;;;;21.08;35.36;98813.06;4990165;28;20038;-96
2023/04/16 11:14:58;;;;;;;7.03;3.30;;;;;;;21.27;35.33;98809.66;4990076;28;20026;-95
2023/04/16 11:17:29;;;;;;;7.05;3.78;;;;;;;20.77;35.30;98808.34;4974022;28;20018;-96
2023/04/16 11:19:54;;;;;;;6.03;3.47;;;;;;;20.67;36.03;98803.38;4974643;28;20038;-93
2023/04/16 11:22:20;;;;;;;6.50;3.67;;;;;;;20.69;35.76;98799.16;4973616;28;20033;-93
2023/04/16 11:24:52;;;;;;;10.05;3.78;;;;;;;20.67;35.51;98803.38;4973818;28;20034;-94
2023/04/16 11:27:18;;;;;;;7.20;3.13;;;;;;;20.44;35.57;98800.38;4974785;28;20054;-94